Time;durP1;ratioP1;P1;durP2;ratioP2;P2;SDS_P1;SDS_P2;PMS_P1;PMS_P2;Temp;Humidity;BMP_temperature;BMP_pressure;BME280_temperature;BME280_humidity;BME280_pressure;Samples;Min_cycle;Max_cycle;Signal;HPM_P1;HPM_P2
2023/03/17 00:01:54;;;;;;;5.35;2.17;;;;;;;7.41;100.00;100650.22;5288992;28;20035;-73
2023/03/17 00:04:26;;;;;;;5.82;2.70;;;;;;;7.39;100.00;100660.09;5296029;28;20020;-73
2023/03/17 00:06:58;;;;;;;6.05;3.00;;;;;;;7.35;100.00;100667.41;5281546;28;20040;-73
2023/03/17 00:09:30;;;;;;;7.07;2.90;;;;;;;7.34;100.00;100649.75;5290333;28;20489;-73
2023/03/17 00:12:01;;;;;;;7.80;2.97;;;;;;;7.38;100.00;100656.59;5298916;28;20038;-73
2023/03/17 00:14:32;;;;;;;6.85;2.70;;;;;;;7.29;100.00;100657.19;5281678;28;20035;-73
2023/03/17 00:17:04;;;;;;;5.70;2.97;;;;;;;7.25;100.00;100661.84;5284808;28;20024;-73
2023/03/17 00:19:35;;;;;;;6.35;2.90;;;;;;;7.30;100.00;100640.28;5280027;28;20618;-73
2023/03/17 00:22:16;;;;;;;5.43;2.50;;;;;;;7.22;100.00;100642.63;5295487;28;20065;-73
2023/03/17 00:24:48;;;;;;;5.38;2.83;;;;;;;7.24;100.00;100625.63;5288823;28;20046;-73
2023/03/17 00:27:19;;;;;;;6.10;3.03;;;;;;;7.21;100.00;100619.66;5282478;28;20048;-73
2023/03/17 00:29:51;;;;;;;5.70;2.72;;;;;;;7.09;100.00;100605.41;5287564;28;20058;-73
2023/03/17 00:32:22;;;;;;;6.68;3.10;;;;;;;7.09;100.00;100613.38;5284458;28;20027;-73
2023/03/17 00:34:54;;;;;;;6.68;3.03;;;;;;;7.12;100.00;100607.88;5276869;28;20416;-73
2023/03/17 00:37:25;;;;;;;5.45;2.58;;;;;;;7.00;100.00;100620.16;5280544;28;20028;-73
2023/03/17 00:39:56;;;;;;;7.32;3.00;;;;;;;7.00;100.00;100617.50;5282028;28;20070;-73
2023/03/17 00:42:28;;;;;;;7.35;2.83;;;;;;;7.01;100.00;100615.69;5281908;28;20120;-73
2023/03/17 00:45:00;;;;;;;6.13;2.90;;;;;;;6.99;100.00;100613.13;5282057;28;20446;-73
2023/03/17 00:47:31;;;;;;;6.40;3.05;;;;;;;6.96;100.00;100609.81;5276767;28;20020;-74
2023/03/17 00:50:04;;;;;;;5.65;2.70;;;;;;;6.98;100.00;100608.78;5280842;28;20028;-73
2023/03/17 00:52:35;;;;;;;9.75;2.83;;;;;;;7.02;100.00;100615.59;5277645;28;20028;-73
2023/03/17 00:55:08;;;;;;;6.63;2.70;;;;;;;6.92;100.00;100613.63;5285975;28;20551;-73
2023/03/17 00:57:41;;;;;;;9.00;2.80;;;;;;;6.94;100.00;100603.78;5280169;28;20138;-73
2023/03/17 01:00:25;;;;;;;5.20;2.58;;;;;;;6.92;100.00;100613.63;5284552;28;20035;-73
2023/03/17 01:02:56;;;;;;;5.78;3.00;;;;;;;6.88;100.00;100605.00;5279253;28;20024;-73
2023/03/17 01:05:28;;;;;;;7.13;3.13;;;;;;;6.82;100.00;100611.56;5286437;28;20527;-73
2023/03/17 01:07:59;;;;;;;5.63;2.63;;;;;;;6.80;100.00;100616.13;5285404;28;20032;-73
2023/03/17 01:10:31;;;;;;;5.45;2.78;;;;;;;6.90;100.00;100612.88;5287496;28;20031;-73
2023/03/17 01:13:04;;;;;;;6.30;3.17;;;;;;;6.86;100.00;100607.78;5286081;28;20040;-73
2023/03/17 01:15:40;;;;;;;5.38;2.88;;;;;;;6.85;100.00;100608.72;5284812;28;20076;-73
2023/03/17 01:18:14;;;;;;;6.53;2.80;;;;;;;6.78;100.00;100607.41;5282737;28;20085;-73
2023/03/17 01:20:46;;;;;;;4.53;2.35;;;;;;;6.84;100.00;100604.34;5276300;28;20028;-73
2023/03/17 01:23:17;;;;;;;7.10;3.15;;;;;;;6.69;100.00;100602.69;5277634;28;20078;-73
2023/03/17 01:25:49;;;;;;;5.43;2.80;;;;;;;6.68;100.00;100595.72;5275748;28;20170;-73
2023/03/17 01:28:22;;;;;;;7.18;2.70;;;;;;;6.64;100.00;100584.44;5276240;28;20032;-73
2023/03/17 01:30:53;;;;;;;5.68;2.83;;;;;;;6.59;100.00;100594.50;5281743;28;20040;-73
2023/03/17 01:33:25;;;;;;;5.18;2.70;;;;;;;6.59;100.00;100588.34;5276899;28;20020;-74
2023/03/17 01:35:56;;;;;;;5.43;2.55;;;;;;;6.59;100.00;100588.34;5277254;28;20028;-73
2023/03/17 01:38:28;;;;;;;6.28;2.67;;;;;;;6.62;100.00;100585.50;5276561;28;20081;-73
2023/03/17 01:41:00;;;;;;;4.60;2.55;;;;;;;6.55;100.00;100585.03;5274490;28;20170;-73
2023/03/17 01:43:32;;;;;;;6.47;2.75;;;;;;;6.53;100.00;100584.28;5280135;28;20024;-73
2023/03/17 01:46:15;;;;;;;4.80;2.38;;;;;;;6.52;100.00;100582.59;5276076;28;20032;-73
2023/03/17 01:48:56;;;;;;;7.55;2.72;;;;;;;6.52;100.00;100581.72;5278103;28;20036;-73
2023/03/17 01:51:50;;;;;;;5.45;2.65;;;;;;;6.48;100.00;100584.59;5273296;28;20032;-73
2023/03/17 01:54:33;;;;;;;5.63;2.73;;;;;;;6.51;100.00;100577.38;5280923;28;20037;-73
2023/03/17 01:57:31;;;;;;;6.65;2.72;;;;;;;6.47;100.00;100571.44;5289887;28;20032;-73
2023/03/17 02:00:07;;;;;;;6.60;2.88;;;;;;;6.39;100.00;100576.38;5276075;28;20525;-73
2023/03/17 02:02:44;;;;;;;7.55;2.75;;;;;;;6.40;100.00;100565.66;5279394;28;20032;-73
2023/03/17 02:05:20;;;;;;;7.05;2.92;;;;;;;6.33;100.00;100561.72;5278393;28;20020;-73
2023/03/17 02:07:52;;;;;;;6.78;2.92;;;;;;;6.32;100.00;100560.00;5280729;28;20728;-73
2023/03/17 02:10:26;;;;;;;8.68;2.72;;;;;;;6.39;100.00;100553.38;5281885;28;20024;-73
2023/03/17 02:13:01;;;;;;;7.70;3.00;;;;;;;6.31;100.00;100557.44;5277838;28;20032;-73
2023/03/17 02:15:47;;;;;;;8.73;3.22;;;;;;;6.31;100.00;100552.13;5272722;28;20036;-73
2023/03/17 02:18:20;;;;;;;6.90;3.20;;;;;;;6.34;100.00;100554.59;5279191;28;20091;-73
2023/03/17 02:21:30;;;;;;;7.50;2.90;;;;;;;6.27;100.00;100552.34;5286154;28;20038;-73
2023/03/17 02:24:06;;;;;;;7.82;3.50;;;;;;;6.28;100.00;100553.19;5280315;28;20028;-73
2023/03/17 02:26:38;;;;;;;7.28;3.25;;;;;;;6.30;100.00;100546.00;5282770;28;20125;-73
2023/03/17 02:29:09;;;;;;;8.18;3.17;;;;;;;6.30;100.00;100548.66;5285102;28;20475;-74
2023/03/17 02:31:43;;;;;;;7.35;2.88;;;;;;;6.26;100.00;100539.19;5282680;28;20816;-73
2023/03/17 02:34:15;;;;;;;6.73;2.90;;;;;;;6.29;100.00;100539.00;5284825;28;20757;-73
2023/03/17 02:36:47;;;;;;;6.97;3.10;;;;;;;6.29;100.00;100531.06;5282764;28;20335;-73
2023/03/17 02:39:18;;;;;;;6.95;3.05;;;;;;;6.36;100.00;100535.00;5281884;28;20939;-73
2023/03/17 02:41:50;;;;;;;6.45;2.85;;;;;;;6.34;100.00;100525.47;5280116;28;20036;-73
2023/03/17 02:44:22;;;;;;;7.30;2.90;;;;;;;6.37;100.00;100520.81;5284215;28;20028;-73
2023/03/17 02:46:53;;;;;;;9.45;3.20;;;;;;;6.40;100.00;100522.41;5281358;28;20042;-74
2023/03/17 02:49:26;;;;;;;7.35;3.10;;;;;;;6.44;100.00;100522.13;5284380;28;20634;-73
2023/03/17 02:51:57;;;;;;;7.43;2.97;;;;;;;6.40;100.00;100520.59;5278515;28;20028;-73
2023/03/17 02:54:29;;;;;;;7.15;2.90;;;;;;;6.39;100.00;100518.91;5285255;28;20144;-73
2023/03/17 02:57:00;;;;;;;7.75;2.85;;;;;;;6.37;100.00;100519.97;5285038;28;20027;-73
2023/03/17 02:59:32;;;;;;;7.03;2.78;;;;;;;6.36;100.00;100515.63;5281165;28;20040;-73
2023/03/17 03:02:03;;;;;;;8.25;3.45;;;;;;;6.40;100.00;100523.25;5280105;28;20028;-73
2023/03/17 03:04:35;;;;;;;6.38;2.65;;;;;;;6.37;100.00;100523.47;5282395;28;20020;-73
2023/03/17 03:07:06;;;;;;;8.45;3.15;;;;;;;6.39;100.00;100528.69;5283555;28;20195;-73
2023/03/17 03:09:38;;;;;;;7.20;2.83;;;;;;;6.41;100.00;100532.91;5283471;28;20024;-73
2023/03/17 03:12:10;;;;;;;6.53;2.95;;;;;;;6.58;100.00;100523.03;5278759;28;20057;-73
2023/03/17 03:14:41;;;;;;;7.15;2.95;;;;;;;6.41;100.00;100521.47;5283178;28;20094;-73
2023/03/17 03:17:12;;;;;;;6.40;2.65;;;;;;;6.39;100.00;100518.06;5282184;28;20040;-73
2023/03/17 03:19:44;;;;;;;8.07;3.28;;;;;;;6.48;100.00;100522.75;5278742;28;20027;-73
2023/03/17 03:22:15;;;;;;;5.85;2.55;;;;;;;6.49;100.00;100524.47;5283762;28;20102;-73
2023/03/17 03:24:46;;;;;;;5.32;2.50;;;;;;;6.39;100.00;100531.31;5287662;28;20024;-73
2023/03/17 03:27:18;;;;;;;7.28;2.38;;;;;;;6.43;100.00;100530.19;5284053;28;20795;-73
2023/03/17 03:29:50;;;;;;;6.70;2.55;;;;;;;6.37;100.00;100526.13;5281391;28;20122;-73
2023/03/17 03:32:21;;;;;;;6.93;2.90;;;;;;;6.35;100.00;100521.84;5281758;28;20040;-74
2023/03/17 03:34:52;;;;;;;8.27;2.97;;;;;;;6.43;100.00;100517.78;5282950;28;20724;-73
2023/03/17 03:37:24;;;;;;;6.45;2.30;;;;;;;6.35;100.00;100530.66;5278418;28;20024;-73
2023/03/17 03:39:56;;;;;;;6.20;2.78;;;;;;;6.43;100.00;100541.63;5271378;28;20028;-74
2023/03/17 03:42:27;;;;;;;6.47;2.38;;;;;;;6.36;100.00;100539.47;5274985;28;20454;-73
2023/03/17 03:44:59;;;;;;;5.63;2.30;;;;;;;6.42;100.00;100534.63;5274509;28;20056;-73
2023/03/17 03:47:30;;;;;;;7.07;2.47;;;;;;;6.38;100.00;100545.50;5280564;28;20470;-73
2023/03/17 03:50:02;;;;;;;5.35;2.20;;;;;;;6.40;100.00;100548.91;5283768;28;20031;-73
2023/03/17 03:52:34;;;;;;;5.78;2.45;;;;;;;6.40;100.00;100538.31;5277348;28;20016;-73
2023/03/17 03:55:06;;;;;;;8.07;2.33;;;;;;;6.45;100.00;100537.06;5282474;28;20025;-74
2023/03/17 03:57:37;;;;;;;7.70;3.05;;;;;;;6.43;100.00;100538.97;5280036;28;20051;-73
2023/03/17 04:00:09;;;;;;;6.65;2.65;;;;;;;6.38;100.00;100550.81;5277810;28;20479;-73
2023/03/17 04:02:43;;;;;;;5.53;2.53;;;;;;;6.35;100.00;100557.16;5274025;28;20024;-73
2023/03/17 04:05:17;;;;;;;7.32;2.70;;;;;;;6.39;100.00;100561.31;5279781;28;20056;-73
2023/03/17 04:07:48;;;;;;;7.38;2.50;;;;;;;6.37;100.00;100559.72;5282234;28;20545;-73
2023/03/17 04:10:20;;;;;;;6.32;2.30;;;;;;;6.38;100.00;100553.47;5278865;28;20028;-73
2023/03/17 04:12:51;;;;;;;5.85;2.30;;;;;;;6.33;100.00;100559.06;5279107;28;20023;-73
2023/03/17 04:15:23;;;;;;;6.55;2.72;;;;;;;6.40;100.00;100552.41;5280837;28;20085;-73
2023/03/17 04:17:54;;;;;;;7.90;2.40;;;;;;;6.33;100.00;100555.53;5284244;28;20085;-73
2023/03/17 04:20:26;;;;;;;6.15;2.80;;;;;;;6.36;100.00;100556.19;5285093;28;20113;-73
2023/03/17 04:22:57;;;;;;;7.95;3.15;;;;;;;6.31;100.00;100554.78;5283819;28;20055;-73
2023/03/17 04:25:29;;;;;;;7.50;3.17;;;;;;;6.23;100.00;100553.50;5279073;28;20032;-73
2023/03/17 04:28:01;;;;;;;10.57;3.10;;;;;;;6.26;100.00;100566.53;5290963;28;20035;-73
2023/03/17 04:30:32;;;;;;;8.93;3.15;;;;;;;6.22;100.00;100564.19;5289845;28;20042;-73
2023/03/17 04:33:03;;;;;;;8.38;2.85;;;;;;;6.26;100.00;100557.75;5291624;28;20496;-73
2023/03/17 04:35:35;;;;;;;8.80;3.38;;;;;;;6.24;100.00;100557.00;5288267;28;20593;-73
2023/03/17 04:38:07;;;;;;;9.95;3.03;;;;;;;6.24;100.00;100557.00;5288837;28;20024;-73
2023/03/17 04:40:38;;;;;;;9.13;2.97;;;;;;;6.24;100.00;100560.47;5283323;28;20051;-73
2023/03/17 04:43:10;;;;;;;12.95;3.38;;;;;;;6.17;100.00;100556.50;5284011;28;20021;-73
2023/03/17 04:45:41;;;;;;;10.70;4.43;;;;;;;6.15;100.00;100562.88;5287915;28;21307;-74
2023/03/17 04:48:13;;;;;;;10.50;2.83;;;;;;;6.11;100.00;100562.19;5291863;28;20023;-73
2023/03/17 04:50:46;;;;;;;9.35;3.15;;;;;;;6.05;100.00;100552.00;5293943;28;20027;-73
2023/03/17 04:53:17;;;;;;;11.50;3.40;;;;;;;6.01;100.00;100542.53;5285938;28;20580;-73
2023/03/17 04:55:49;;;;;;;9.77;3.13;;;;;;;6.14;100.00;100550.59;5286343;28;20024;-73
2023/03/17 04:58:21;;;;;;;14.30;3.72;;;;;;;6.15;100.00;100557.56;5285762;28;20392;-73
2023/03/17 05:00:52;;;;;;;12.00;3.13;;;;;;;6.06;100.00;100545.75;5276378;28;20495;-73
2023/03/17 05:03:24;;;;;;;11.10;3.42;;;;;;;6.04;100.00;100545.84;5267583;28;20025;-73
2023/03/17 05:05:57;;;;;;;12.18;3.63;;;;;;;6.09;100.00;100541.09;5277151;28;20031;-73
2023/03/17 05:08:29;;;;;;;11.25;3.60;;;;;;;6.09;100.00;100527.84;5282341;28;20110;-73
2023/03/17 05:11:01;;;;;;;11.77;3.15;;;;;;;6.05;100.00;100529.00;5281863;28;20649;-73
2023/03/17 05:13:32;;;;;;;9.75;3.53;;;;;;;6.03;100.00;100532.69;5277553;28;21195;-74
2023/03/17 05:16:04;;;;;;;13.10;3.05;;;;;;;6.11;100.00;100522.47;5280218;28;20483;-73
2023/03/17 05:18:36;;;;;;;13.27;3.22;;;;;;;6.02;100.00;100533.63;5279790;28;20579;-73
2023/03/17 05:21:07;;;;;;;11.02;3.28;;;;;;;6.07;100.00;100536.84;5281644;28;20027;-73
2023/03/17 05:23:39;;;;;;;10.20;3.17;;;;;;;6.15;100.00;100539.03;5276277;28;20584;-73
2023/03/17 05:26:11;;;;;;;6.45;3.08;;;;;;;6.11;100.00;100543.66;5278633;28;20529;-73
2023/03/17 05:28:43;;;;;;;9.65;2.85;;;;;;;6.15;100.00;100552.25;5283334;28;20125;-73
2023/03/17 05:31:14;;;;;;;8.32;3.08;;;;;;;6.16;100.00;100556.63;5280630;28;20111;-73
2023/03/17 05:33:48;;;;;;;9.00;2.70;;;;;;;6.09;100.00;100554.34;5276869;28;20028;-73
2023/03/17 05:36:20;;;;;;;9.10;2.67;;;;;;;6.05;100.00;100544.03;5281115;28;20840;-73
2023/03/17 05:38:51;;;;;;;8.95;3.00;;;;;;;6.11;100.00;100553.41;5275643;28;20026;-73
2023/03/17 05:41:22;;;;;;;10.73;3.10;;;;;;;6.09;100.00;100558.78;5279832;28;20035;-73
2023/03/17 05:43:54;;;;;;;11.45;3.30;;;;;;;6.15;100.00;100550.47;5277978;28;20020;-73
2023/03/17 05:46:26;;;;;;;9.52;2.72;;;;;;;6.16;100.00;100543.38;5274801;28;20109;-73
2023/03/17 05:48:57;;;;;;;7.55;2.70;;;;;;;6.11;100.00;100545.47;5280625;28;20110;-73
2023/03/17 05:51:28;;;;;;;10.82;3.05;;;;;;;6.16;100.00;100538.09;5279677;28;20766;-73
2023/03/17 05:54:00;;;;;;;8.88;3.08;;;;;;;6.19;100.00;100546.66;5283410;28;20024;-73
2023/03/17 05:56:32;;;;;;;9.20;2.90;;;;;;;6.19;100.00;100556.41;5281736;28;20028;-73
2023/03/17 05:59:04;;;;;;;8.52;2.80;;;;;;;6.13;100.00;100544.41;5275069;28;20058;-73
2023/03/17 06:01:36;;;;;;;9.50;3.10;;;;;;;6.11;100.00;100540.16;5279311;28;20032;-73
2023/03/17 06:04:07;;;;;;;9.73;3.25;;;;;;;6.09;100.00;100527.84;5281204;28;20020;-73
2023/03/17 06:06:38;;;;;;;9.32;3.22;;;;;;;6.11;100.00;100543.66;5277862;28;20171;-73
2023/03/17 06:09:10;;;;;;;11.32;3.25;;;;;;;6.09;100.00;100545.56;5280464;28;20470;-74
2023/03/17 06:11:42;;;;;;;9.93;2.92;;;;;;;6.13;100.00;100544.41;5279796;28;20104;-73
2023/03/17 06:14:14;;;;;;;8.00;3.30;;;;;;;6.14;100.00;100538.19;5285368;28;20089;-73
2023/03/17 06:16:45;;;;;;;12.82;4.03;;;;;;;6.11;100.00;100542.81;5283844;28;20020;-74
2023/03/17 06:19:17;;;;;;;12.20;3.20;;;;;;;6.11;100.00;100541.00;5280602;28;20028;-74
2023/03/17 06:21:49;;;;;;;10.95;3.30;;;;;;;6.11;100.00;100553.41;5287567;28;20730;-73
2023/03/17 06:24:20;;;;;;;9.18;3.00;;;;;;;6.20;100.00;100550.19;5283001;28;20643;-73
2023/03/17 06:26:51;;;;;;;11.70;3.33;;;;;;;6.18;100.00;100549.44;5275630;28;20055;-73
2023/03/17 06:29:23;;;;;;;13.20;3.70;;;;;;;6.21;100.00;100550.09;5289142;28;20031;-73
2023/03/17 06:31:55;;;;;;;8.90;3.30;;;;;;;6.36;100.00;100556.19;5280352;28;20025;-73
2023/03/17 06:34:26;;;;;;;9.80;3.25;;;;;;;6.26;100.00;100560.38;5280463;28;20040;-73
2023/03/17 06:36:57;;;;;;;9.45;3.28;;;;;;;6.33;100.00;100558.19;5276655;28;20032;-73
2023/03/17 06:39:29;;;;;;;15.90;3.33;;;;;;;6.33;100.00;100560.84;5284636;28;20119;-74
2023/03/17 06:42:00;;;;;;;12.20;3.33;;;;;;;6.39;100.00;100556.03;5278704;28;20085;-73
2023/03/17 06:44:32;;;;;;;12.40;3.22;;;;;;;6.39;100.00;100545.41;5277246;28;20031;-73
2023/03/17 06:47:03;;;;;;;11.02;3.47;;;;;;;6.37;100.00;100539.38;5278872;28;20405;-73
2023/03/17 06:49:35;;;;;;;10.98;3.15;;;;;;;6.50;100.00;100546.53;5279286;28;20463;-73
2023/03/17 06:52:07;;;;;;;11.25;2.97;;;;;;;6.46;100.00;100546.75;5276464;28;20032;-73
2023/03/17 06:54:40;;;;;;;9.20;3.47;;;;;;;6.54;100.00;100548.91;5273835;28;20386;-74
2023/03/17 06:57:11;;;;;;;10.50;3.47;;;;;;;6.57;100.00;100551.31;5277931;28;20512;-74
2023/03/17 06:59:42;;;;;;;9.88;2.80;;;;;;;6.60;100.00;100542.34;5282289;28;20140;-73
2023/03/17 07:02:14;;;;;;;9.23;2.85;;;;;;;6.68;100.00;100551.50;5273822;28;20043;-73
2023/03/17 07:04:45;;;;;;;8.43;2.92;;;;;;;6.76;100.00;100553.63;5276947;28;20028;-73
2023/03/17 07:07:18;;;;;;;6.47;3.08;;;;;;;6.83;100.00;100549.63;5279512;28;20085;-73
2023/03/17 07:09:51;;;;;;;7.90;2.92;;;;;;;6.92;100.00;100552.63;5286042;28;20036;-73
2023/03/17 07:12:23;;;;;;;7.72;3.28;;;;;;;6.98;100.00;100552.22;5281301;28;20040;-73
2023/03/17 07:14:54;;;;;;;7.03;2.78;;;;;;;7.02;100.00;100551.09;5280316;28;20036;-73
2023/03/17 07:17:26;;;;;;;10.27;3.42;;;;;;;7.13;100.00;100553.00;5279929;28;20784;-73
2023/03/17 07:19:57;;;;;;;9.23;3.10;;;;;;;7.15;100.00;100553.75;5275384;28;20043;-73
2023/03/17 07:22:28;;;;;;;9.75;3.08;;;;;;;7.24;100.00;100563.75;5280229;28;20024;-73
2023/03/17 07:24:59;;;;;;;12.52;3.28;;;;;;;7.28;100.00;100559.09;5279677;28;20042;-74
2023/03/17 07:27:31;;;;;;;11.27;3.55;;;;;;;7.36;100.00;100547.00;5278188;28;20040;-74
2023/03/17 07:30:03;;;;;;;8.75;3.28;;;;;;;7.42;100.00;100551.91;5278954;28;20059;-74
2023/03/17 07:32:35;;;;;;;11.05;2.70;;;;;;;7.51;100.00;100539.78;5278166;28;20048;-73
2023/03/17 07:35:06;;;;;;;10.48;3.28;;;;;;;7.60;100.00;100533.84;5285368;28;20028;-74
2023/03/17 07:37:38;;;;;;;7.72;2.90;;;;;;;7.65;100.00;100541.50;5288526;28;20108;-73
2023/03/17 07:40:10;;;;;;;10.38;2.90;;;;;;;7.69;100.00;100539.47;5290384;28;20494;-74
2023/03/17 07:42:41;;;;;;;9.77;3.50;;;;;;;7.79;100.00;100536.09;5280904;28;20488;-74
2023/03/17 07:45:13;;;;;;;9.00;2.95;;;;;;;7.85;100.00;100532.16;5277601;28;20106;-74
2023/03/17 07:47:45;;;;;;;7.30;2.95;;;;;;;7.97;100.00;100533.09;5278382;28;20093;-73
2023/03/17 07:50:17;;;;;;;10.10;2.97;;;;;;;8.08;100.00;100541.16;5276974;28;20035;-74
2023/03/17 07:52:49;;;;;;;8.93;3.33;;;;;;;8.12;100.00;100545.28;5276112;28;20060;-74
2023/03/17 07:55:20;;;;;;;9.85;2.67;;;;;;;8.08;100.00;100535.00;5279630;28;20455;-74
2023/03/17 07:57:52;;;;;;;7.55;2.78;;;;;;;8.18;100.00;100541.34;5277956;28;20031;-74
2023/03/17 08:00:25;;;;;;;5.70;2.75;;;;;;;8.22;100.00;100556.09;5275158;28;20055;-74
2023/03/17 08:02:56;;;;;;;6.95;2.67;;;;;;;8.31;100.00;100559.94;5276705;28;20024;-74
2023/03/17 08:05:28;;;;;;;7.10;2.60;;;;;;;8.36;100.00;100563.97;5278155;28;20035;-74
2023/03/17 08:07:59;;;;;;;8.00;2.80;;;;;;;8.48;100.00;100550.78;5277478;28;20051;-73
2023/03/17 08:10:31;;;;;;;7.35;2.47;;;;;;;8.49;100.00;100542.66;5274959;28;20032;-74
2023/03/17 08:13:02;;;;;;;7.43;2.53;;;;;;;8.52;100.00;100542.47;5276003;28;20036;-74
2023/03/17 08:15:34;;;;;;;8.07;2.75;;;;;;;8.61;100.00;100544.44;5276408;28;20460;-73
2023/03/17 08:18:05;;;;;;;7.95;3.10;;;;;;;8.66;100.00;100554.75;5273898;28;20024;-75
2023/03/17 08:20:37;;;;;;;8.57;3.10;;;;;;;8.74;100.00;100555.03;5278365;28;20032;-73
2023/03/17 08:23:09;;;;;;;6.53;2.90;;;;;;;8.85;100.00;100556.06;5274975;28;20031;-74
2023/03/17 08:25:40;;;;;;;8.80;2.60;;;;;;;8.94;100.00;100552.72;5277543;28;20052;-74
2023/03/17 08:28:14;;;;;;;7.28;3.13;;;;;;;8.96;100.00;100551.63;5274709;28;20032;-74
2023/03/17 08:30:46;;;;;;;5.40;3.05;;;;;;;9.09;100.00;100546.25;5286025;28;20066;-74
2023/03/17 08:33:18;;;;;;;5.68;2.88;;;;;;;9.16;100.00;100547.47;5299782;28;20029;-74
2023/03/17 08:35:49;;;;;;;6.25;2.38;;;;;;;9.25;100.00;100535.28;5287975;28;20043;-74
2023/03/17 08:38:20;;;;;;;6.78;2.67;;;;;;;9.36;100.00;100537.13;5286815;28;20020;-74
2023/03/17 08:40:52;;;;;;;8.82;2.83;;;;;;;9.39;100.00;100527.06;5286484;28;20116;-74
2023/03/17 08:43:23;;;;;;;6.57;2.58;;;;;;;9.48;100.00;100514.03;5289449;28;20110;-74
2023/03/17 08:46:02;;;;;;;7.78;2.60;;;;;;;9.61;100.00;100512.97;5286911;28;20039;-74
2023/03/17 08:48:36;;;;;;;4.72;2.33;;;;;;;9.57;100.00;100529.31;5294425;28;20051;-74
2023/03/17 08:51:08;;;;;;;6.85;2.70;;;;;;;9.66;100.00;100536.56;5275154;28;20024;-74
2023/03/17 08:53:40;;;;;;;6.53;2.53;;;;;;;9.78;100.00;100545.44;5272433;28;20046;-73
2023/03/17 08:56:12;;;;;;;5.53;2.60;;;;;;;9.96;100.00;100548.47;5280479;28;20090;-74
2023/03/17 08:58:44;;;;;;;6.47;2.88;;;;;;;9.93;100.00;100544.25;5275008;28;20036;-74
2023/03/17 09:01:19;;;;;;;5.50;2.90;;;;;;;10.10;100.00;100542.88;5276067;28;20432;-74
2023/03/17 09:03:54;;;;;;;4.72;2.55;;;;;;;10.14;100.00;100535.50;5284705;28;20078;-73
2023/03/17 09:06:26;;;;;;;6.25;2.90;;;;;;;10.28;100.00;100535.25;5302948;28;20856;-73
2023/03/17 09:08:59;;;;;;;7.22;2.67;;;;;;;10.37;100.00;100533.69;5285849;28;20038;-74
2023/03/17 09:11:31;;;;;;;5.25;2.65;;;;;;;10.49;100.00;100531.84;5292867;28;20340;-74
2023/03/17 09:14:03;;;;;;;7.22;2.78;;;;;;;10.50;100.00;100534.38;5283669;28;20024;-74
2023/03/17 09:16:34;;;;;;;5.60;2.95;;;;;;;10.62;100.00;100532.53;5289383;28;20398;-74
2023/03/17 09:19:06;;;;;;;8.70;2.95;;;;;;;10.65;100.00;100534.97;5295847;28;20031;-74
2023/03/17 09:21:37;;;;;;;8.02;2.92;;;;;;;10.73;100.00;100529.00;5295129;28;20036;-74
2023/03/17 09:24:09;;;;;;;6.32;2.60;;;;;;;10.79;100.00;100532.00;5292607;28;20021;-74
2023/03/17 09:26:41;;;;;;;6.10;2.80;;;;;;;10.97;100.00;100539.47;5288168;28;20059;-74
2023/03/17 09:29:12;;;;;;;7.40;3.00;;;;;;;11.07;100.00;100534.22;5296288;28;20493;-74
2023/03/17 09:31:43;;;;;;;9.07;2.80;;;;;;;11.13;100.00;100531.03;5294961;28;20028;-74
2023/03/17 09:34:15;;;;;;;6.88;2.85;;;;;;;11.29;100.00;100522.56;5283571;28;20075;-74
2023/03/17 09:36:47;;;;;;;5.97;2.67;;;;;;;11.25;100.00;100516.63;5294476;28;20710;-74
2023/03/17 09:39:21;;;;;;;5.50;2.80;;;;;;;11.48;100.00;100513.81;5290686;28;20047;-73
2023/03/17 09:42:18;;;;;;;;;;;;;;;11.51;100.00;100518.91;5289101;28;20581;-74
2023/03/17 09:44:57;;;;;;;5.90;3.03;;;;;;;11.55;100.00;100520.34;5292730;28;20029;-74
2023/03/17 09:47:42;;;;;;;5.57;3.03;;;;;;;11.65;100.00;100523.06;5282878;28;20035;-74
2023/03/17 09:50:22;;;;;;;7.80;2.67;;;;;;;11.57;100.00;100527.25;5289841;28;20032;-74
2023/03/17 09:52:56;;;;;;;5.75;2.85;;;;;;;11.71;100.00;100519.88;5286609;28;20035;-73
2023/03/17 09:55:33;;;;;;;6.83;2.50;;;;;;;11.80;100.00;100527.09;5285785;28;20035;-73
2023/03/17 09:58:04;;;;;;;6.68;2.90;;;;;;;11.75;100.00;100540.88;5308720;28;20032;-73
2023/03/17 10:00:36;;;;;;;5.72;2.63;;;;;;;11.75;100.00;100540.88;5290486;28;20051;-72
2023/03/17 10:03:10;;;;;;;5.75;2.45;;;;;;;11.69;100.00;100545.88;5289739;28;20558;-73
2023/03/17 10:05:41;;;;;;;9.05;2.88;;;;;;;11.90;100.00;100552.06;5293393;28;20024;-73
2023/03/17 10:08:30;;;;;;;7.50;2.70;;;;;;;11.84;100.00;100544.56;5303492;28;20439;-73
2023/03/17 10:11:16;;;;;;;5.43;2.63;;;;;;;11.74;100.00;100543.66;5293984;28;20110;-73
2023/03/17 10:14:15;;;;;;;8.05;2.60;;;;;;;11.94;100.00;100548.13;5292792;28;20603;-73
2023/03/17 10:17:12;;;;;;;6.47;2.47;;;;;;;11.85;100.00;100573.00;5297485;28;20432;-73
2023/03/17 10:20:07;;;;;;;5.50;2.55;;;;;;;11.78;100.00;100567.31;5288087;28;20031;-73
2023/03/17 10:22:56;;;;;;;4.72;2.50;;;;;;;11.82;100.00;100565.22;5282684;28;20420;-73
2023/03/17 10:25:31;;;;;;;6.43;2.50;;;;;;;11.92;100.00;100576.84;5280746;28;20031;-73
2023/03/17 10:28:11;;;;;;;5.53;2.90;;;;;;;11.98;100.00;100574.63;5291218;28;20456;-74
2023/03/17 10:30:42;;;;;;;7.30;2.85;;;;;;;12.09;100.00;100582.56;5298105;28;20163;-73
2023/03/17 10:33:14;;;;;;;6.47;2.80;;;;;;;12.18;100.00;100575.53;5292618;28;20458;-73
2023/03/17 10:35:46;;;;;;;6.60;2.60;;;;;;;12.31;100.00;100574.34;5286462;28;20021;-74
2023/03/17 10:38:20;;;;;;;10.13;2.80;;;;;;;12.41;100.00;100571.72;5285800;28;20489;-73
2023/03/17 10:41:02;;;;;;;5.85;2.15;;;;;;;12.49;100.00;100571.88;5291938;28;20032;-74
2023/03/17 10:43:40;;;;;;;4.05;2.50;;;;;;;12.62;100.00;100563.59;5293064;28;20055;-73
2023/03/17 10:46:24;;;;;;;6.22;2.40;;;;;;;12.73;100.00;100565.28;5288280;28;20055;-74
2023/03/17 10:49:15;;;;;;;5.43;2.33;;;;;;;12.82;100.00;100563.63;5286594;28;20031;-74
2023/03/17 10:51:51;;;;;;;6.47;2.50;;;;;;;12.91;100.00;100569.00;5296666;28;20016;-74
2023/03/17 10:54:25;;;;;;;4.78;2.10;;;;;;;13.03;100.00;100569.69;5284478;28;20030;-74
2023/03/17 10:57:05;;;;;;;4.60;2.30;;;;;;;13.17;100.00;100557.72;5289707;28;20556;-74
2023/03/17 10:59:42;;;;;;;5.40;2.28;;;;;;;13.24;100.00;100561.53;5293594;28;20780;-74
2023/03/17 11:02:30;;;;;;;8.43;2.60;;;;;;;13.41;100.00;100560.00;5283954;28;20344;-74
2023/03/17 11:05:16;;;;;;;7.03;3.05;;;;;;;13.49;100.00;100544.03;5288157;28;20031;-74
2023/03/17 11:07:47;;;;;;;8.23;2.70;;;;;;;13.56;100.00;100538.97;5304144;28;20031;-74
2023/03/17 11:10:20;;;;;;;5.68;2.47;;;;;;;13.57;100.00;100540.63;5291527;28;20031;-74
2023/03/17 11:13:00;;;;;;;5.65;2.78;;;;;;;13.64;100.00;100546.28;5295238;28;20431;-74
2023/03/17 11:15:35;;;;;;;9.82;2.75;;;;;;;13.67;100.00;100541.47;5290048;28;20088;-74
2023/03/17 11:18:15;;;;;;;5.47;2.67;;;;;;;13.75;100.00;100535.38;5283386;28;20028;-74
2023/03/17 11:21:01;;;;;;;5.30;2.53;;;;;;;13.79;100.00;100530.56;5300492;28;20050;-74
2023/03/17 11:23:47;;;;;;;7.30;2.92;;;;;;;13.84;100.00;100525.59;5283990;28;20028;-74
2023/03/17 11:26:39;;;;;;;6.68;2.80;;;;;;;13.89;100.00;100526.84;5282484;28;20127;-75
2023/03/17 11:29:20;;;;;;;6.85;2.88;;;;;;;13.94;100.00;100531.78;5278083;28;20028;-75
2023/03/17 11:32:15;;;;;;;9.18;3.05;;;;;;;13.95;100.00;100538.84;5287098;28;20062;-74
2023/03/17 11:34:58;;;;;;;6.70;3.15;;;;;;;13.99;100.00;100532.19;5266579;28;20044;-74
2023/03/17 11:37:30;;;;;;;7.40;3.60;;;;;;;13.95;100.00;100536.16;5285798;28;20024;-75
2023/03/17 11:40:38;;;;;;;6.22;3.25;;;;;;;14.08;100.00;100546.56;5281610;28;20372;-74
2023/03/17 11:43:19;;;;;;;6.85;3.40;;;;;;;14.11;100.00;100549.78;5274538;28;20182;-74
2023/03/17 11:45:59;;;;;;;5.90;3.67;;;;;;;14.15;100.00;100536.91;5286489;28;20162;-75
2023/03/17 11:48:55;;;;;;;7.32;3.60;;;;;;;14.30;100.00;100535.44;5291206;28;20185;-75
2023/03/17 11:51:29;;;;;;;6.57;3.47;;;;;;;14.30;100.00;100529.22;5292056;28;20036;-75
2023/03/17 11:54:14;;;;;;;6.85;3.67;;;;;;;14.32;100.00;100520.03;5291212;28;20457;-75